This is the latest recevied weather packets stored in our database for station/object W5GMO. If no packets are shown the sender has not sent any weather packets the latest 10 day(s).
| Time | Temp. | Humidity | Pressure | Rain* | Wind** | Luminosity | Snow |
|---|---|---|---|---|---|---|---|
| 1788119643 | 31.67° C | 1% | 1018.6 hPa | 0 mm | - | 203 W/m² | - |
| 1788119341 | 31.11° C | 1% | 1018.7 hPa | 0 mm | - | 160 W/m² | - |
| 1788119040 | 31.11° C | 1% | 1018.8 hPa | 0 mm | - | 538 W/m² | - |
| 1788118735 | 31.67° C | 1% | 1018.9 hPa | 0 mm | - | 551 W/m² | - |
| 1788118434 | 32.78° C | 1% | 1019.1 hPa | 0 mm | - | 552 W/m² | - |
| 1788118130 | 32.78° C | 1% | 1019 hPa | 0 mm | - | 587 W/m² | - |
| 1788117830 | 32.22° C | 1% | 1019.1 hPa | 0 mm | - | 609 W/m² | - |
| 1788117526 | 31.67° C | 1% | 1019.2 hPa | 0 mm | - | 601 W/m² | - |
| 1788117225 | 31.67° C | 1% | 1019.4 hPa | 0 mm | - | 605 W/m² | - |
| 1788116922 | 31.11° C | 1% | 1019.5 hPa | 0 mm | - | 640 W/m² | - |
| 1788116622 | 31.11° C | 1% | 1019.5 hPa | 0 mm | - | 480 W/m² | - |
| 1788116320 | 31.11° C | 1% | 1019.7 hPa | 0 mm | - | 630 W/m² | - |
| 1788116016 | 30.56° C | 1% | 1019.9 hPa | 0 mm | - | 630 W/m² | - |
| 1788115711 | 31.11° C | 1% | 1019.6 hPa | 0 mm | - | 233 W/m² | - |
| 1788115405 | 31.11° C | 1% | 1020 hPa | 0 mm | - | 650 W/m² | - |
| 1788115100 | 30.56° C | 1% | 1020 hPa | 0 mm | - | 654 W/m² | - |
| 1788114799 | 30.56° C | 1% | 1020.3 hPa | 0 mm | - | 675 W/m² | - |
| 1788114495 | 30° C | 1% | 1020.4 hPa | 0 mm | - | 687 W/m² | - |
| 1788114191 | 30° C | 1% | 1020.5 hPa | 0 mm | - | 733 W/m² | - |
| 1788113887 | 29.44° C | 1% | 1020.6 hPa | 0 mm | - | 831 W/m² | - |
| 1788113582 | 30° C | 1% | 1020.5 hPa | 0 mm | - | 377 W/m² | - |
| 1788113282 | 29.44° C | 1% | 1020.8 hPa | 0 mm | - | 383 W/m² | - |
| 1788112976 | 29.44° C | 1% | 1020.7 hPa | 0 mm | - | 329 W/m² | - |
| 1788112675 | 29.44° C | 1% | 1020.9 hPa | 0 mm | - | 276 W/m² | - |
| 1788112370 | 29.44° C | 1% | 1020.8 hPa | 0 mm | - | 251 W/m² | - |
* Rain latest hour (hover to see other rain measurements)
** Current wind speed in m/s (hover to see current wind gust speed)